createdAt,value
2023-04-02T00:02:27.456Z,10.77
2023-04-02T00:07:33.876Z,11.10
2023-04-02T00:12:35.291Z,7.63
2023-04-02T00:17:36.767Z,10.23
2023-04-02T00:22:44.462Z,13.65
2023-04-02T00:27:46.249Z,20.27
2023-04-02T00:32:47.976Z,15.35
2023-04-02T00:37:50.197Z,15.48
2023-04-02T00:42:54.647Z,16.52
2023-04-02T00:47:58.624Z,15.85
2023-04-02T00:53:09.140Z,17.08
2023-04-02T00:58:32.852Z,18.08
2023-04-02T01:03:36.952Z,16.42
2023-04-02T01:09:01.002Z,16.55
2023-04-02T01:14:19.854Z,14.73
2023-04-02T01:20:00.953Z,15.85
2023-04-02T01:25:06.440Z,14.07
2023-04-02T01:30:11.944Z,11.55
2023-04-02T01:35:14.017Z,13.15
2023-04-02T01:40:37.799Z,15.95
2023-04-02T01:45:39.293Z,14.93
2023-04-02T01:50:42.624Z,16.08
2023-04-02T01:55:46.006Z,15.90
2023-04-02T02:01:00.133Z,17.10
2023-04-02T02:06:03.095Z,18.65
2023-04-02T02:11:05.729Z,12.13
2023-04-02T02:16:15.172Z,14.30
2023-04-02T02:21:28.921Z,16.75
2023-04-02T02:26:35.899Z,15.55
2023-04-02T02:31:41.813Z,13.20
2023-04-02T02:36:50.750Z,11.97
2023-04-02T02:42:02.530Z,13.05
2023-04-02T02:47:11.770Z,10.55
2023-04-02T02:52:24.786Z,9.88
2023-04-02T02:57:31.827Z,12.65
2023-04-02T03:02:38.551Z,15.10
2023-04-02T03:07:40.413Z,10.95
2023-04-02T03:13:12.949Z,11.93
2023-04-02T03:18:19.993Z,15.23
2023-04-02T03:23:32.560Z,12.73
2023-04-02T03:28:39.619Z,17.23
2023-04-02T03:33:50.426Z,16.27
2023-04-02T03:39:14.679Z,13.25
2023-04-02T03:44:23.839Z,11.68
2023-04-02T03:49:36.728Z,17.80
2023-04-02T03:54:39.565Z,16.20
2023-04-02T04:00:05.435Z,16.55
2023-04-02T04:05:26.327Z,15.75
2023-04-02T04:10:29.231Z,16.92
2023-04-02T04:15:41.906Z,14.98
2023-04-02T04:20:57.021Z,14.55
2023-04-02T04:26:19.797Z,22.73
2023-04-02T04:31:34.070Z,10.70
2023-04-02T04:36:53.833Z,15.15
2023-04-02T04:41:58.689Z,14.38
2023-04-02T04:47:07.327Z,10.07
2023-04-02T04:52:22.409Z,15.70
2023-04-02T04:57:39.864Z,17.00
2023-04-02T05:02:48.855Z,11.32
2023-04-02T05:07:59.863Z,8.38
2023-04-02T05:13:01.441Z,11.40
2023-04-02T05:18:44.986Z,5.85
2023-04-02T05:23:52.695Z,6.82
2023-04-02T05:29:09.193Z,6.00
2023-04-02T05:34:12.409Z,5.10
2023-04-02T05:39:22.603Z,4.38
2023-04-02T05:44:30.153Z,2.83
2023-04-02T05:49:48.662Z,5.50
2023-04-02T05:55:13.429Z,6.00
2023-04-02T06:00:25.466Z,6.28
2023-04-02T06:05:34.317Z,6.70
2023-04-02T06:10:47.435Z,7.03
2023-04-02T06:15:49.158Z,6.95
2023-04-02T06:20:51.080Z,6.80
2023-04-02T06:26:00.253Z,4.40
2023-04-02T06:31:09.567Z,2.97
2023-04-02T06:36:12.494Z,6.10
2023-04-02T06:41:23.234Z,6.18
2023-04-02T06:46:49.974Z,3.42
2023-04-02T06:51:54.794Z,5.32
2023-04-02T06:56:56.682Z,9.40
2023-04-02T07:02:03.684Z,5.32
2023-04-02T07:07:05.164Z,5.55
2023-04-02T07:12:23.695Z,3.88
2023-04-02T07:17:25.176Z,6.00
2023-04-02T07:22:26.896Z,5.50
2023-04-02T07:27:28.296Z,3.90
2023-04-02T07:32:29.785Z,3.67
2023-04-02T07:37:31.903Z,4.95
2023-04-02T07:42:33.318Z,5.20
2023-04-02T07:47:34.857Z,3.63
2023-04-02T07:52:42.746Z,8.02
2023-04-02T07:57:55.733Z,5.55
2023-04-02T08:02:57.328Z,7.40
2023-04-02T08:07:58.888Z,5.35
2023-04-02T08:13:00.353Z,5.40
2023-04-02T08:18:01.860Z,4.70
2023-04-02T08:23:03.853Z,6.32
2023-04-02T08:28:05.300Z,6.13
2023-04-02T08:33:07.199Z,6.03
2023-04-02T08:38:14.716Z,4.95
2023-04-02T08:43:48.770Z,6.28
2023-04-02T08:48:55.805Z,3.13
2023-04-02T08:54:03.422Z,3.80
2023-04-02T08:59:34.655Z,4.13
2023-04-02T09:04:36.979Z,5.25
2023-04-02T09:09:38.904Z,5.78
2023-04-02T09:14:50.292Z,10.27
2023-04-02T09:20:13.614Z,5.18
2023-04-02T09:25:21.041Z,5.55
2023-04-02T09:30:31.767Z,5.45
2023-04-02T09:35:55.048Z,4.07
2023-04-02T09:41:05.756Z,8.65
2023-04-02T09:46:13.178Z,3.80
2023-04-02T09:51:23.047Z,4.05
2023-04-02T09:56:26.984Z,2.03
2023-04-02T10:01:33.200Z,3.78
2023-04-02T10:06:35.200Z,3.28
2023-04-02T10:11:45.807Z,4.43
2023-04-02T10:16:58.390Z,3.25
2023-04-02T10:22:04.302Z,1.85
2023-04-02T10:27:37.562Z,4.63
2023-04-02T10:33:20.125Z,2.00
2023-04-02T10:38:32.320Z,5.15
2023-04-02T10:43:45.594Z,3.20
2023-04-02T10:48:54.784Z,5.97
2023-04-02T10:54:21.840Z,5.10
2023-04-02T10:59:32.063Z,3.28
2023-04-02T11:04:44.126Z,3.58
2023-04-02T11:09:50.793Z,3.80
2023-04-02T11:14:54.311Z,3.70
2023-04-02T11:20:34.205Z,3.95
2023-04-02T11:25:36.099Z,2.20
2023-04-02T11:30:37.764Z,3.20
2023-04-02T11:35:40.919Z,4.68
2023-04-02T11:40:45.374Z,6.68
2023-04-02T11:45:54.839Z,2.97
2023-04-02T11:50:57.148Z,3.00
2023-04-02T11:56:21.336Z,3.40
2023-04-02T12:02:14.197Z,4.28
2023-04-02T12:07:35.133Z,5.00
2023-04-02T12:12:38.672Z,2.55
2023-04-02T12:17:40.963Z,3.42
2023-04-02T12:22:52.057Z,7.35
2023-04-02T12:28:14.375Z,2.42
2023-04-02T12:33:17.147Z,5.57
2023-04-02T12:38:21.458Z,1.73
2023-04-02T12:43:27.761Z,3.17
2023-04-02T12:48:31.380Z,3.60
2023-04-02T12:53:36.892Z,2.65
2023-04-02T12:58:41.543Z,4.90
2023-04-02T13:03:43.973Z,3.17
2023-04-02T13:08:45.630Z,3.40
2023-04-02T13:13:51.695Z,2.10
2023-04-02T13:19:17.965Z,2.55
2023-04-02T13:24:22.066Z,2.95
2023-04-02T13:29:42.896Z,1.80
2023-04-02T13:34:44.444Z,2.05
2023-04-02T13:39:46.341Z,3.50
2023-04-02T13:44:47.961Z,4.13
2023-04-02T13:49:51.031Z,4.53
2023-04-02T13:54:56.101Z,2.35
2023-04-02T14:00:02.970Z,4.63
2023-04-02T14:05:23.203Z,3.03
2023-04-02T14:10:47.063Z,6.22
2023-04-02T14:16:17.623Z,3.17
2023-04-02T14:22:02.818Z,5.32
2023-04-02T14:27:24.268Z,5.85
2023-04-02T14:32:36.475Z,1.60
2023-04-02T14:38:15.496Z,3.15
2023-04-02T14:43:27.742Z,3.22
2023-04-02T14:48:41.414Z,3.35
2023-04-02T14:53:52.590Z,2.35
2023-04-02T14:59:32.699Z,2.67
2023-04-02T15:04:40.612Z,2.08
2023-04-02T15:09:56.992Z,4.18
2023-04-02T15:15:04.616Z,1.83
2023-04-02T15:20:15.908Z,3.55
2023-04-02T15:25:37.959Z,1.65
2023-04-02T15:30:44.009Z,1.58
2023-04-02T15:35:57.505Z,2.53
2023-04-02T15:41:04.088Z,1.73
2023-04-02T15:51:44.754Z,2.40
2023-04-02T15:57:10.005Z,3.77
2023-04-02T16:02:20.726Z,3.58
2023-04-02T16:07:32.299Z,1.65
2023-04-02T16:12:37.242Z,2.97
2023-04-02T16:17:45.689Z,5.88
2023-04-02T16:23:00.476Z,4.13
2023-04-02T16:28:23.794Z,3.63
2023-04-02T16:33:32.752Z,4.43
2023-04-02T16:38:56.698Z,3.50
2023-04-02T16:44:06.151Z,2.50
2023-04-02T16:49:13.545Z,8.43
2023-04-02T16:54:52.188Z,3.13
2023-04-02T17:00:03.897Z,5.07
2023-04-02T17:05:12.279Z,1.52
2023-04-02T17:10:40.977Z,5.05
2023-04-02T17:15:46.241Z,5.43
2023-04-02T17:20:48.640Z,2.55
2023-04-02T17:25:57.944Z,2.20
2023-04-02T17:31:01.332Z,4.13
2023-04-02T17:36:09.392Z,4.57
2023-04-02T17:41:46.393Z,9.05
2023-04-02T17:47:07.572Z,2.78
2023-04-02T17:52:18.089Z,8.00
2023-04-02T17:57:43.868Z,3.55
2023-04-02T18:02:51.469Z,2.88
2023-04-02T18:08:13.498Z,5.10
2023-04-02T18:13:41.104Z,2.47
2023-04-02T18:19:05.962Z,3.53
2023-04-02T18:24:19.932Z,1.35
2023-04-02T18:29:35.328Z,5.40
2023-04-02T18:34:58.050Z,2.05
2023-04-02T18:40:37.153Z,4.28
2023-04-02T18:45:44.180Z,3.05
2023-04-02T18:50:48.947Z,1.85
2023-04-02T18:55:56.552Z,3.92
2023-04-02T19:01:04.534Z,3.90
2023-04-02T19:06:12.865Z,3.47
2023-04-02T19:11:21.294Z,1.88
2023-04-02T19:16:55.810Z,1.98
2023-04-02T19:22:42.374Z,3.13
2023-04-02T19:28:08.733Z,2.17
2023-04-02T19:33:42.390Z,3.40
2023-04-02T19:38:50.488Z,5.43
2023-04-02T19:43:53.186Z,6.03
2023-04-02T19:49:26.836Z,2.97
2023-04-02T19:54:28.525Z,3.30
2023-04-02T19:59:30.397Z,1.85
2023-04-02T20:04:31.945Z,2.45
2023-04-02T20:09:33.472Z,1.30
2023-04-02T20:14:35.257Z,2.85
2023-04-02T20:19:36.882Z,5.43
2023-04-02T20:24:38.437Z,4.07
2023-04-02T20:29:42.289Z,3.38
2023-04-02T20:34:44.222Z,2.35
2023-04-02T20:39:48.758Z,4.00
2023-04-02T20:44:50.473Z,2.92
2023-04-02T20:49:53.360Z,3.60
2023-04-02T20:54:54.950Z,1.92
2023-04-02T20:59:56.415Z,2.55
2023-04-02T21:04:58.020Z,7.50
2023-04-02T21:10:02.633Z,5.47
2023-04-02T21:15:04.428Z,3.75
2023-04-02T21:20:06.711Z,2.25
2023-04-02T21:25:11.214Z,2.35
2023-04-02T21:30:15.924Z,4.88
2023-04-02T21:35:17.547Z,3.80
2023-04-02T21:40:25.177Z,2.05
2023-04-02T21:45:28.162Z,3.58
2023-04-02T21:50:34.548Z,2.55
2023-04-02T21:55:36.267Z,2.88
2023-04-02T22:00:38.346Z,4.05
2023-04-02T22:05:41.542Z,3.25
2023-04-02T22:10:45.634Z,2.88
2023-04-02T22:15:48.469Z,3.88
2023-04-02T22:20:54.704Z,2.10
2023-04-02T22:25:59.138Z,1.73
2023-04-02T22:31:21.905Z,4.07
2023-04-02T22:36:25.431Z,4.43
2023-04-02T22:41:32.069Z,3.53
2023-04-02T22:46:34.621Z,3.08
2023-04-02T22:51:36.425Z,2.42
2023-04-02T22:56:39.541Z,4.18
2023-04-02T23:01:41.122Z,2.00
2023-04-02T23:06:42.786Z,1.67
2023-04-02T23:11:44.367Z,3.42
2023-04-02T23:16:45.881Z,2.15
2023-04-02T23:21:48.521Z,2.38
2023-04-02T23:26:49.978Z,5.55
2023-04-02T23:31:51.617Z,4.28
2023-04-02T23:36:53.164Z,1.83
2023-04-02T23:41:54.683Z,2.25
2023-04-02T23:46:56.222Z,4.07
2023-04-02T23:51:58.016Z,2.15
2023-04-02T23:56:59.418Z,2.20
